Prairieville, LA

6:39 AM CST on January 26, 2015 (GMT -0600)
False River | Change Station
CLOSE
Current Station
Airport
Location: New Roads False River Regiona,
Elevation: 39 ft
Nearby Weather Stations

Elev 39 ft 30.72 °N, 91.48 °W | Updated 24 minutes ago

Clear
Clear
45 °F
Feels Like 41 °F
N
7
Wind Variable Wind from NW

Today
High -- | Low -- °F
--% Chance of Precip.
Yesterday
High -- | Low -- °F
Precip. -- in
6:57 AM 5:35 PM
Waxing Crescent, 43% visible
Pressure 30.11 in
Visibility 10.0 miles
Clouds Clear
Windchill 41 °F
Dew Point 33 °F
Humidity 64%
Rainfall 0.00 in
Snow Depth Not available.
UV 0 out of 12
Pollen 7.00 out of 12
Air Quality Not available.
Flu Activity Not available.
METAR KHZR 261215Z AUTO 32006KT 10SM CLR 07/01 A3011 RMK AO2 T00710007

More Conditions Fewer Conditions

Pressure 30.11 in
Visibility 10.0 miles
Clouds Clear
Windchill 41 °F
Dew Point 33 °F
Humidity 64%
Rainfall 0.00 in
Snow Depth Not available.
UV 0 out of 12
Pollen 7.00 out of 12
Air Quality Not available.
Flu Activity Not available.
METAR KHZR 261215Z AUTO 32006KT 10SM CLR 07/01 A3011 RMK AO2 T00710007

More Conditions Fewer Conditions

10-Day Weather Forecast

Almanac

Astronomy

Jan. 26, 2015 Rise Set
Actual Time
Civil Twilight
Nautical Twilight
Astronomical Twilight
Moon
Length of Visible Light
Length of Day
Tomorrow will be .
, % of the Moon is Illuminated

Today's Extremes

State Highs State Lows

Community

WunderPhotos

Upload Photos

1,790,175 photos uploaded!

WunderBlogs® & News

Nearby

Air Quality

  Air Quality AQ Index Pollutant
Not available.

Snow Depth

Station Depth Elevation

Earthquake Activity

City Distance Mag. Time & Date
Minimum magnitude displayed is 2.5.

Coastal Water Temperatures

Place Temperature

Nearby Weather Stations